Gaz Unity — HOEJ — position and weather

sailwx.info

Track history (hours):
 
Tides and Currents Weather Stations Pressure Air Temp Water Temp Dewpoint Dewpoint Depression Visibility Wind Speed Wind Dir Waves Ship Positions

Gaz Unity

Last reported at 2014-Sep-01 18:27 UTC. Time now 2014-Sep-01 18:38 UTC.
Position N 36°19' W 000°05'.

Length 228 m; draft 7.9 m.

Type: Ship (hazmat cat C). MMSI: 353956000.

Date/timePositionNaut miles runAvg speedWind from/ knotsBaromVisibWave heightAir tempDewpointWater temp
2014-Sep-01 18:27N 36°19' W 000°05'1 0.7
2014-Sep-01 17:33N 36°19' W 000°05'0 0.4
2014-Sep-01 16:33N 36°19' W 000°04'0 0.3
2014-Sep-01 15:33N 36°18' W 000°04'0 0.1
2014-Sep-01 14:30N 36°18' W 000°04'6 6.6
2014-Sep-01 13:32N 36°24' W 000°01'8 8.1
2014-Sep-01 12:32N 36°32' E 000°02'31 1.6
2014-Aug-31 17:24N 36°04' W 000°14'4 0.7
2014-Aug-31 12:09N 36°02' W 000°18'2 0.2
2014-Aug-31 00:31N 36°01' W 000°16'2 0.5
2014-Aug-30 19:32N 36°02' W 000°13'1 0.7
2014-Aug-30 18:33N 36°02' W 000°13'4 3.7
2014-Aug-30 17:33N 36°00' W 000°17'5 0.4
2014-Aug-30 05:22N 36°03' W 000°11'3912.7
2014-Aug-30 02:17N 36°28' E 000°26'912.7
2014-Aug-30 01:33N 36°33' E 000°35'1312.6
2014-Aug-30 00:33N 36°40' E 000°49'1312.4
2014-Aug-29 23:29N 36°46' E 001°03'1212.7
2014-Aug-29 22:31N 36°49' E 001°18'1312.9
2014-Aug-29 21:31N 36°53' E 001°34'1313.1
2014-Aug-29 20:33N 36°56' E 001°49'1313.2
2014-Aug-29 19:33N 36°59' E 002°05'1313.3
2014-Aug-29 18:34N 37°03' E 002°21'1313.1
2014-Aug-29 17:33N 37°06' E 002°37'1312.7
2014-Aug-29 16:33N 37°10' E 002°52'1312.6
2014-Aug-29 15:33N 37°14' E 003°07'1312.8
2014-Aug-29 14:33N 37°16' E 003°23'1212.4
2014-Aug-29 13:33N 37°17' E 003°38'1312.8
2014-Aug-29 12:33N 37°20' E 003°54'1313.2
2014-Aug-29 11:33N 37°21' E 004°10'1313.2
2014-Aug-29 10:33N 37°23' E 004°27'1313.0
2014-Aug-29 09:33N 37°25' E 004°43'1313.2
2014-Aug-29 08:33N 37°27' E 004°60'1313.3
2014-Aug-29 07:33N 37°28' E 005°16'1414.2
2014-Aug-29 06:33N 37°30' E 005°34'1414.1
2014-Aug-29 05:33N 37°32' E 005°51'1513.2
2014-Aug-29 04:26N 37°35' E 006°10'2613.1
2014-Aug-29 02:27N 37°38' E 006°42'1513.0
2014-Aug-29 01:18N 37°40' E 007°01'2312.9
2014-Aug-28 23:30N 37°43' E 007°30'1212.4
2014-Aug-28 22:33N 37°45' E 007°45'2512.6
2014-Aug-28 20:33N 37°48' E 008°16'1312.2
2014-Aug-28 19:29N 37°50' E 008°33'1112.2
2014-Aug-28 18:34N 37°52' E 008°47'1212.1
2014-Aug-28 17:34N 37°53' E 009°02'1212.0
2014-Aug-28 16:33N 37°51' E 009°17'1211.9
2014-Aug-28 15:33N 37°46' E 009°31'1211.8
2014-Aug-28 14:33N 37°43' E 009°45'1211.9
2014-Aug-28 13:33N 37°39' E 009°60'1212.1
2014-Aug-28 12:33N 37°39' E 010°15'1212.0
2014-Aug-28 11:33N 37°39' E 010°30'3511.8
2014-Aug-28 08:33N 37°27' E 011°12'2712.4
2014-Aug-28 06:22N 37°14' E 011°42'2312.7
2014-Aug-28 04:33N 37°02' E 012°06'1512.7
2014-Aug-28 03:22N 36°55' E 012°23'1012.6
2014-Aug-28 02:33N 36°50' E 012°35'1312.5
2014-Aug-28 01:33N 36°45' E 012°49'1212.3
2014-Aug-28 00:33N 36°38' E 013°02'1212.2
2014-Aug-27 23:34N 36°29' E 013°11'1211.9
2014-Aug-27 22:34N 36°20' E 013°20'1211.8
2014-Aug-27 21:34N 36°10' E 013°30'1212.2
2014-Aug-27 20:33N 36°01' E 013°39'1312.7
2014-Aug-27 19:33N 35°51' E 013°49'1313.0
2014-Aug-27 18:34N 35°41' E 013°59'1312.7
2014-Aug-27 17:33N 35°39' E 014°15'1312.6
2014-Aug-27 16:32N 35°38' E 014°31'1212.5
2014-Aug-27 15:33N 35°38' E 014°46'1312.5
2014-Aug-27 14:34N 35°38' E 015°01'7 7.4
2014-Aug-27 13:33N 35°38' E 015°10'0 0.5
2014-Aug-27 12:33N 35°38' E 015°10'0 0.4
2014-Aug-27 11:34N 35°38' E 015°09'0 0.2
2014-Aug-27 10:34N 35°39' E 015°09'1 0.6
2014-Aug-27 09:33N 35°38' E 015°09'1 0.5
2014-Aug-27 08:34N 35°38' E 015°09'0 0.4
2014-Aug-27 07:34N 35°39' E 015°09'0 0.2
2014-Aug-27 06:33N 35°39' E 015°09'1 0.8
2014-Aug-27 05:33N 35°39' E 015°08'1 1.0
2014-Aug-27 04:34N 35°40' E 015°07'1 1.1
2014-Aug-27 03:33N 35°40' E 015°06'1 1.1
2014-Aug-27 02:33N 35°41' E 015°04'1 0.9
2014-Aug-27 01:34N 35°41' E 015°03'1 0.9
2014-Aug-27 00:33N 35°41' E 015°02'1 0.8
2014-Aug-26 23:26N 35°41' E 015°01'1 0.7
2014-Aug-26 22:33N 35°42' E 015°01'0 0.3
2014-Aug-26 21:33N 35°41' E 015°01'4 4.2
2014-Aug-26 20:33N 35°39' E 015°05'0 0.4
2014-Aug-26 19:34N 35°38' E 015°05'0 0.5
2014-Aug-26 18:33N 35°38' E 015°04'0 0.5
2014-Aug-26 17:34N 35°39' E 015°04'0 0.4
2014-Aug-26 16:34N 35°39' E 015°03'0 0.4
2014-Aug-26 15:33N 35°39' E 015°03'0 0.5
2014-Aug-26 14:33N 35°39' E 015°03'1 0.6
2014-Aug-26 13:34N 35°40' E 015°02'1 0.8
2014-Aug-26 12:33N 35°41' E 015°02'1 0.9
2014-Aug-26 11:33N 35°41' E 015°01'1 0.8
2014-Aug-26 10:34N 35°42' E 015°01'7 1.2
2014-Aug-26 04:33N 35°41' E 015°10'2 1.1
2014-Aug-26 03:04N 35°42' E 015°08'2 1.0
2014-Aug-26 00:33N 35°44' E 015°06'1 0.6
2014-Aug-25 23:04N 35°45' E 015°05'0 0.7
2014-Aug-25 22:33N 35°45' E 015°05'8 8.4
2014-Aug-25 21:34N 35°44' E 015°15'34413.1
2014-Aug-24 19:22N 35°55' E 022°19'1012.8
2014-Aug-24 18:34N 35°56' E 022°32'1312.6
2014-Aug-24 17:33N 35°56' E 022°47'1312.7
2014-Aug-24 16:33N 35°56' E 023°03'2912.6
2014-Aug-24 14:14N 36°22' E 023°20'912.7
2014-Aug-24 13:33N 36°30' E 023°23'1412.7
2014-Aug-24 12:28N 36°43' E 023°29'1212.7
2014-Aug-24 11:33N 36°54' E 023°36'1413.7
2014-Aug-24 10:33N 37°05' E 023°45'1413.8
2014-Aug-24 09:32N 37°17' E 023°55'1313.1
2014-Aug-24 08:33N 37°28' E 024°04'2612.8
2014-Aug-24 06:31N 37°48' E 024°25'4413.4
2014-Aug-24 03:16N 38°25' E 024°54'1014.0
2014-Aug-24 02:31N 38°34' E 024°59'1413.0
2014-Aug-24 01:25N 38°47' E 025°08'2010.5
2014-Aug-23 23:33N 39°04' E 025°19'5 2.7
2014-Aug-23 21:33N 39°09' E 025°23'2914.0
2014-Aug-23 19:31N 39°35' E 025°39'16910.6
2014-Aug-23 03:32N 40°57' E 028°53'0 0.0
2014-Aug-23 02:32N 40°57' E 028°53'0 0.0
2014-Aug-23 01:20N 40°57' E 028°53'0 0.0
2014-Aug-23 00:32N 40°57' E 028°53'0 0.0
2014-Aug-22 22:26N 40°57' E 028°53'0 0.0
2014-Aug-22 21:32N 40°57' E 028°53'0 0.0
2014-Aug-22 20:32N 40°57' E 028°53'0 0.0
2014-Aug-22 19:32N 40°57' E 028°53'  
Track history (hours):
 
Tides and Currents Weather Stations Pressure Air Temp Water Temp Dewpoint Dewpoint Depression Visibility Wind Speed Wind Dir Waves Ship Positions

Gaz Unity

Last reported at 2014-Sep-01 18:27 UTC. Time now 2014-Sep-01 18:38 UTC.
Position N 36°19' W 000°05'.

Length 228 m; draft 7.9 m.

Type: Ship (hazmat cat C). MMSI: 353956000.

Date/timePositionNaut miles runAvg speedWind from/ knotsBaromVisibWave heightAir tempDewpointWater temp
2014-Sep-01 18:27N 36°19' W 000°05'1 0.7
2014-Sep-01 17:33N 36°19' W 000°05'0 0.4
2014-Sep-01 16:33N 36°19' W 000°04'0 0.3
2014-Sep-01 15:33N 36°18' W 000°04'0 0.1
2014-Sep-01 14:30N 36°18' W 000°04'6 6.6
2014-Sep-01 13:32N 36°24' W 000°01'8 8.1
2014-Sep-01 12:32N 36°32' E 000°02'31 1.6
2014-Aug-31 17:24N 36°04' W 000°14'4 0.7
2014-Aug-31 12:09N 36°02' W 000°18'2 0.2
2014-Aug-31 00:31N 36°01' W 000°16'2 0.5
2014-Aug-30 19:32N 36°02' W 000°13'1 0.7
2014-Aug-30 18:33N 36°02' W 000°13'4 3.7
2014-Aug-30 17:33N 36°00' W 000°17'5 0.4
2014-Aug-30 05:22N 36°03' W 000°11'3912.7
2014-Aug-30 02:17N 36°28' E 000°26'912.7
2014-Aug-30 01:33N 36°33' E 000°35'1312.6
2014-Aug-30 00:33N 36°40' E 000°49'1312.4
2014-Aug-29 23:29N 36°46' E 001°03'1212.7
2014-Aug-29 22:31N 36°49' E 001°18'1312.9
2014-Aug-29 21:31N 36°53' E 001°34'1313.1
2014-Aug-29 20:33N 36°56' E 001°49'1313.2
2014-Aug-29 19:33N 36°59' E 002°05'1313.3
2014-Aug-29 18:34N 37°03' E 002°21'1313.1
2014-Aug-29 17:33N 37°06' E 002°37'1312.7
2014-Aug-29 16:33N 37°10' E 002°52'1312.6
2014-Aug-29 15:33N 37°14' E 003°07'1312.8
2014-Aug-29 14:33N 37°16' E 003°23'1212.4
2014-Aug-29 13:33N 37°17' E 003°38'1312.8
2014-Aug-29 12:33N 37°20' E 003°54'1313.2
2014-Aug-29 11:33N 37°21' E 004°10'1313.2
2014-Aug-29 10:33N 37°23' E 004°27'1313.0
2014-Aug-29 09:33N 37°25' E 004°43'1313.2
2014-Aug-29 08:33N 37°27' E 004°60'1313.3
2014-Aug-29 07:33N 37°28' E 005°16'1414.2
2014-Aug-29 06:33N 37°30' E 005°34'1414.1
2014-Aug-29 05:33N 37°32' E 005°51'1513.2
2014-Aug-29 04:26N 37°35' E 006°10'2613.1
2014-Aug-29 02:27N 37°38' E 006°42'1513.0
2014-Aug-29 01:18N 37°40' E 007°01'2312.9
2014-Aug-28 23:30N 37°43' E 007°30'1212.4
2014-Aug-28 22:33N 37°45' E 007°45'2512.6
2014-Aug-28 20:33N 37°48' E 008°16'1312.2
2014-Aug-28 19:29N 37°50' E 008°33'1112.2
2014-Aug-28 18:34N 37°52' E 008°47'1212.1
2014-Aug-28 17:34N 37°53' E 009°02'1212.0
2014-Aug-28 16:33N 37°51' E 009°17'1211.9
2014-Aug-28 15:33N 37°46' E 009°31'1211.8
2014-Aug-28 14:33N 37°43' E 009°45'1211.9
2014-Aug-28 13:33N 37°39' E 009°60'1212.1
2014-Aug-28 12:33N 37°39' E 010°15'1212.0
2014-Aug-28 11:33N 37°39' E 010°30'3511.8
2014-Aug-28 08:33N 37°27' E 011°12'2712.4
2014-Aug-28 06:22N 37°14' E 011°42'2312.7
2014-Aug-28 04:33N 37°02' E 012°06'1512.7
2014-Aug-28 03:22N 36°55' E 012°23'1012.6
2014-Aug-28 02:33N 36°50' E 012°35'1312.5
2014-Aug-28 01:33N 36°45' E 012°49'1212.3
2014-Aug-28 00:33N 36°38' E 013°02'1212.2
2014-Aug-27 23:34N 36°29' E 013°11'1211.9
2014-Aug-27 22:34N 36°20' E 013°20'1211.8
2014-Aug-27 21:34N 36°10' E 013°30'1212.2
2014-Aug-27 20:33N 36°01' E 013°39'1312.7
2014-Aug-27 19:33N 35°51' E 013°49'1313.0
2014-Aug-27 18:34N 35°41' E 013°59'1312.7
2014-Aug-27 17:33N 35°39' E 014°15'1312.6
2014-Aug-27 16:32N 35°38' E 014°31'1212.5
2014-Aug-27 15:33N 35°38' E 014°46'1312.5
2014-Aug-27 14:34N 35°38' E 015°01'7 7.4
2014-Aug-27 13:33N 35°38' E 015°10'0 0.5
2014-Aug-27 12:33N 35°38' E 015°10'0 0.4
2014-Aug-27 11:34N 35°38' E 015°09'0 0.2
2014-Aug-27 10:34N 35°39' E 015°09'1 0.6
2014-Aug-27 09:33N 35°38' E 015°09'1 0.5
2014-Aug-27 08:34N 35°38' E 015°09'0 0.4
2014-Aug-27 07:34N 35°39' E 015°09'0 0.2
2014-Aug-27 06:33N 35°39' E 015°09'1 0.8
2014-Aug-27 05:33N 35°39' E 015°08'1 1.0
2014-Aug-27 04:34N 35°40' E 015°07'1 1.1
2014-Aug-27 03:33N 35°40' E 015°06'1 1.1
2014-Aug-27 02:33N 35°41' E 015°04'1 0.9
2014-Aug-27 01:34N 35°41' E 015°03'1 0.9
2014-Aug-27 00:33N 35°41' E 015°02'1 0.8
2014-Aug-26 23:26N 35°41' E 015°01'1 0.7
2014-Aug-26 22:33N 35°42' E 015°01'0 0.3
2014-Aug-26 21:33N 35°41' E 015°01'4 4.2
2014-Aug-26 20:33N 35°39' E 015°05'0 0.4
2014-Aug-26 19:34N 35°38' E 015°05'0 0.5
2014-Aug-26 18:33N 35°38' E 015°04'0 0.5
2014-Aug-26 17:34N 35°39' E 015°04'0 0.4
2014-Aug-26 16:34N 35°39' E 015°03'0 0.4
2014-Aug-26 15:33N 35°39' E 015°03'0 0.5
2014-Aug-26 14:33N 35°39' E 015°03'1 0.6
2014-Aug-26 13:34N 35°40' E 015°02'1 0.8
2014-Aug-26 12:33N 35°41' E 015°02'1 0.9
2014-Aug-26 11:33N 35°41' E 015°01'1 0.8
2014-Aug-26 10:34N 35°42' E 015°01'7 1.2
2014-Aug-26 04:33N 35°41' E 015°10'2 1.1
2014-Aug-26 03:04N 35°42' E 015°08'2 1.0
2014-Aug-26 00:33N 35°44' E 015°06'1 0.6
2014-Aug-25 23:04N 35°45' E 015°05'0 0.7
2014-Aug-25 22:33N 35°45' E 015°05'8 8.4
2014-Aug-25 21:34N 35°44' E 015°15'34413.1
2014-Aug-24 19:22N 35°55' E 022°19'1012.8
2014-Aug-24 18:34N 35°56' E 022°32'1312.6
2014-Aug-24 17:33N 35°56' E 022°47'1312.7
2014-Aug-24 16:33N 35°56' E 023°03'2912.6
2014-Aug-24 14:14N 36°22' E 023°20'912.7
2014-Aug-24 13:33N 36°30' E 023°23'1412.7
2014-Aug-24 12:28N 36°43' E 023°29'1212.7
2014-Aug-24 11:33N 36°54' E 023°36'1413.7
2014-Aug-24 10:33N 37°05' E 023°45'1413.8
2014-Aug-24 09:32N 37°17' E 023°55'1313.1
2014-Aug-24 08:33N 37°28' E 024°04'2612.8
2014-Aug-24 06:31N 37°48' E 024°25'4413.4
2014-Aug-24 03:16N 38°25' E 024°54'1014.0
2014-Aug-24 02:31N 38°34' E 024°59'1413.0
2014-Aug-24 01:25N 38°47' E 025°08'2010.5
2014-Aug-23 23:33N 39°04' E 025°19'5 2.7
2014-Aug-23 21:33N 39°09' E 025°23'2914.0
2014-Aug-23 19:31N 39°35' E 025°39'16910.6
2014-Aug-23 03:32N 40°57' E 028°53'0 0.0
2014-Aug-23 02:32N 40°57' E 028°53'0 0.0
2014-Aug-23 01:20N 40°57' E 028°53'0 0.0
2014-Aug-23 00:32N 40°57' E 028°53'0 0.0
2014-Aug-22 22:26N 40°57' E 028°53'0 0.0
2014-Aug-22 21:32N 40°57' E 028°53'0 0.0
2014-Aug-22 20:32N 40°57' E 028°53'0 0.0
2014-Aug-22 19:32N 40°57' E 028°53'  

Dump ship's entire track history